createdAt,value
2018-11-02T00:02:17.754Z,48.30
2018-11-02T00:05:16.870Z,47.17
2018-11-02T00:08:20.289Z,45.95
2018-11-02T00:11:32.449Z,46.18
2018-11-02T00:14:30.010Z,47.73
2018-11-02T00:17:24.264Z,47.53
2018-11-02T00:20:19.074Z,46.15
2018-11-02T00:23:16.559Z,45.95
2018-11-02T00:26:07.158Z,46.23
2018-11-02T00:29:04.393Z,47.43
2018-11-02T00:32:01.567Z,46.58
2018-11-02T00:34:55.417Z,46.13
2018-11-02T00:37:50.271Z,43.68
2018-11-02T00:40:44.911Z,45.08
2018-11-02T00:43:38.699Z,45.83
2018-11-02T00:46:34.332Z,44.38
2018-11-02T00:49:28.284Z,46.40
2018-11-02T00:52:26.643Z,44.13
2018-11-02T00:55:22.224Z,46.05
2018-11-02T00:58:17.657Z,44.77
2018-11-02T01:01:12.018Z,45.00
2018-11-02T01:04:06.063Z,45.15
2018-11-02T01:07:00.348Z,43.90
2018-11-02T01:09:54.672Z,44.58
2018-11-02T01:12:52.247Z,46.50
2018-11-02T01:15:42.932Z,45.28
2018-11-02T01:18:36.954Z,45.15
2018-11-02T01:21:34.026Z,43.15
2018-11-02T01:24:28.084Z,43.75
2018-11-02T01:27:29.384Z,46.18
2018-11-02T01:30:42.164Z,44.13
2018-11-02T01:33:59.630Z,44.45
2018-11-02T01:37:28.504Z,44.33
2018-11-02T01:48:37.357Z,44.10
2018-11-02T01:51:24.488Z,42.55
2018-11-02T01:54:18.684Z,43.85
2018-11-02T01:57:13.985Z,45.63
2018-11-02T02:00:08.375Z,44.50
2018-11-02T02:03:02.725Z,43.92
2018-11-02T02:05:56.603Z,43.40
2018-11-02T02:08:50.564Z,44.93
2018-11-02T02:11:44.648Z,44.70
2018-11-02T02:14:38.546Z,41.15
2018-11-02T02:17:39.902Z,42.38
2018-11-02T02:20:33.618Z,43.25
2018-11-02T02:23:28.551Z,43.33
2018-11-02T02:26:22.724Z,41.28
2018-11-02T02:29:16.541Z,43.92
2018-11-02T02:32:10.429Z,42.25
2018-11-02T02:35:04.441Z,40.05
2018-11-02T02:37:58.658Z,40.55
2018-11-02T02:40:55.151Z,41.18
2018-11-02T02:43:49.179Z,39.63
2018-11-02T02:46:43.130Z,41.20
2018-11-02T02:49:36.880Z,41.33
2018-11-02T02:52:37.317Z,40.60
2018-11-02T02:55:27.418Z,39.78
2018-11-02T02:58:21.201Z,40.98
2018-11-02T03:01:14.949Z,38.53
2018-11-02T03:04:08.849Z,38.88
2018-11-02T03:07:02.595Z,37.55
2018-11-02T03:09:56.285Z,38.58
2018-11-02T03:12:49.936Z,37.55
2018-11-02T03:15:44.038Z,38.40
2018-11-02T03:18:37.984Z,37.67
2018-11-02T03:21:41.296Z,37.00
2018-11-02T03:24:28.935Z,36.58
2018-11-02T03:27:24.860Z,36.20
2018-11-02T03:30:18.735Z,36.30
2018-11-02T03:33:12.523Z,37.55
2018-11-02T03:36:06.639Z,35.95
2018-11-02T03:39:00.881Z,33.92
2018-11-02T03:41:55.565Z,36.03
2018-11-02T03:44:51.568Z,34.27
2018-11-02T03:47:49.389Z,32.25
2018-11-02T03:50:43.533Z,31.45
2018-11-02T03:53:44.068Z,28.32
2018-11-02T03:56:52.114Z,26.82
2018-11-02T03:59:53.682Z,25.45
2018-11-02T04:02:54.518Z,25.02
2018-11-02T04:06:04.768Z,24.25
2018-11-02T04:09:04.041Z,23.35
2018-11-02T04:12:24.134Z,22.80
2018-11-02T04:15:06.593Z,24.07
2018-11-02T04:18:14.011Z,23.45
2018-11-02T04:21:04.515Z,25.37
2018-11-02T04:23:57.012Z,24.65
2018-11-02T04:27:18.473Z,25.57
2018-11-02T04:29:52.603Z,25.37
2018-11-02T04:32:46.795Z,25.82
2018-11-02T04:35:48.106Z,25.92
2018-11-02T04:42:27.603Z,24.37
2018-11-02T04:46:06.937Z,25.97
2018-11-02T04:49:49.996Z,25.35
2018-11-02T04:53:09.587Z,25.25
2018-11-02T04:56:14.250Z,25.35
2018-11-02T04:59:13.036Z,24.77
2018-11-02T05:02:17.466Z,23.35
2018-11-02T05:09:44.475Z,24.37
2018-11-02T05:12:54.635Z,24.18
2018-11-02T05:16:05.128Z,25.12
2018-11-02T05:19:00.389Z,25.05
2018-11-02T05:30:19.107Z,24.12
2018-11-02T06:05:48.651Z,23.85
2018-11-02T06:08:53.374Z,23.92
2018-11-02T06:11:56.226Z,23.15
2018-11-02T06:14:54.063Z,22.55
2018-11-02T06:18:20.189Z,23.67
2018-11-02T06:25:17.631Z,24.87
2018-11-02T06:28:13.955Z,23.60
2018-11-02T06:32:45.157Z,22.93
2018-11-02T06:34:56.788Z,23.20
2018-11-02T06:37:55.303Z,23.98
2018-11-02T06:41:05.685Z,23.75
2018-11-02T06:43:56.833Z,22.15
2018-11-02T06:46:53.603Z,23.22
2018-11-02T06:49:51.032Z,22.55
2018-11-02T06:52:46.202Z,23.42
2018-11-02T06:55:52.895Z,23.40
2018-11-02T06:58:46.566Z,22.73
2018-11-02T07:02:03.363Z,22.73
2018-11-02T07:04:58.586Z,22.93
2018-11-02T07:08:00.309Z,23.77
2018-11-02T07:10:54.671Z,23.85
2018-11-02T07:13:51.013Z,22.58
2018-11-02T07:16:51.476Z,23.27
2018-11-02T07:19:59.350Z,23.57
2018-11-02T07:22:48.846Z,23.45
2018-11-02T07:25:43.155Z,22.80
2018-11-02T07:28:47.769Z,23.12
2018-11-02T07:32:00.387Z,23.67
2018-11-02T07:34:59.580Z,23.52
2018-11-02T07:37:56.559Z,23.02
2018-11-02T07:40:56.689Z,24.15
2018-11-02T07:44:09.537Z,22.65
2018-11-02T07:47:32.465Z,22.90
2018-11-02T07:50:27.717Z,23.27
2018-11-02T07:55:40.615Z,23.73
2018-11-02T07:57:26.556Z,23.62
2018-11-02T08:00:24.764Z,23.12
2018-11-02T08:03:26.319Z,24.25
2018-11-02T08:06:26.144Z,23.83
2018-11-02T08:09:28.539Z,23.87
2018-11-02T08:12:26.755Z,23.02
2018-11-02T08:15:22.979Z,23.52
2018-11-02T08:21:20.956Z,24.23
2018-11-02T08:24:18.307Z,24.23
2018-11-02T08:27:13.047Z,23.65
2018-11-02T08:30:28.594Z,23.18
2018-11-02T08:33:28.512Z,22.67
2018-11-02T08:36:27.666Z,24.18
2018-11-02T08:40:03.452Z,23.45
2018-11-02T08:43:00.647Z,24.32
2018-11-02T08:46:12.105Z,24.15
2018-11-02T08:49:09.558Z,23.67
2018-11-02T08:56:12.165Z,24.63
2018-11-02T08:59:12.965Z,23.95
2018-11-02T09:02:07.309Z,22.62
2018-11-02T09:05:10.205Z,23.67
2018-11-02T09:08:01.775Z,23.47
2018-11-02T09:11:08.963Z,22.73
2018-11-02T09:15:01.612Z,22.05
2018-11-02T09:18:51.376Z,21.65
2018-11-02T09:22:37.893Z,22.82
2018-11-02T09:25:26.603Z,21.25
2018-11-02T09:28:22.804Z,21.33
2018-11-02T09:31:27.427Z,20.85
2018-11-02T09:46:41.521Z,21.75
2018-11-02T09:54:31.942Z,21.93
2018-11-02T09:58:06.881Z,21.80
2018-11-02T10:05:36.428Z,21.70
2018-11-02T10:09:19.535Z,21.25
2018-11-02T10:13:09.310Z,21.97
2018-11-02T10:16:33.488Z,21.77
2018-11-02T10:23:36.463Z,21.00
2018-11-02T10:26:58.469Z,21.75
2018-11-02T10:29:55.146Z,21.70
2018-11-02T10:32:57.024Z,23.73
2018-11-02T10:35:53.183Z,22.77
2018-11-02T10:39:45.755Z,21.57
2018-11-02T10:42:31.522Z,21.40
2018-11-02T10:45:33.835Z,22.00
2018-11-02T10:48:48.313Z,22.05
2018-11-02T10:52:15.266Z,21.30
2018-11-02T10:55:30.879Z,20.65
2018-11-02T10:58:35.593Z,21.73
2018-11-02T11:01:50.957Z,21.73
2018-11-02T11:12:33.080Z,21.70
2018-11-02T11:19:43.604Z,20.65
2018-11-02T11:22:37.777Z,20.10
2018-11-02T11:25:31.865Z,20.90
2018-11-02T11:28:27.273Z,20.50
2018-11-02T11:34:41.660Z,18.75
2018-11-02T11:41:05.212Z,17.48
2018-11-02T11:44:02.114Z,17.70
2018-11-02T11:47:04.693Z,17.40
2018-11-02T11:49:59.731Z,17.65
2018-11-02T11:52:54.950Z,16.57
2018-11-02T11:56:21.041Z,17.00
2018-11-02T11:59:19.298Z,16.30
2018-11-02T12:09:15.102Z,14.83
2018-11-02T12:16:41.234Z,18.85
2018-11-02T12:19:36.363Z,19.45
2018-11-02T12:22:30.880Z,20.77
2018-11-02T12:26:50.676Z,20.68
2018-11-02T12:29:32.986Z,21.30
2018-11-02T12:32:38.258Z,20.77
2018-11-02T12:35:32.002Z,21.00
2018-11-02T12:38:28.985Z,22.30
2018-11-02T12:41:22.633Z,20.77
2018-11-02T12:44:16.361Z,22.05
2018-11-02T12:47:18.773Z,23.22
2018-11-02T12:50:18.288Z,23.32
